Time;durP1;ratioP1;P1;durP2;ratioP2;P2;SDS_P1;SDS_P2;PMS_P1;PMS_P2;Temp;Humidity;BMP_temperature;BMP_pressure;BME280_temperature;BME280_humidity;BME280_pressure;Samples;Min_cycle;Max_cycle;Signal;HPM_P1;HPM_P2
2022/04/21 00:00:13;;;;;;;;;;;;;;;;;;5042164;28;20374;-58
2022/04/21 00:02:39;;;;;;;;;;;;;;;;;;5047754;28;20023;-58
2022/04/21 00:05:05;;;;;;;;;;;;;;;;;;5048180;28;19932;-57
2022/04/21 00:07:31;;;;;;;;;;;;;;;;;;5049523;28;20374;-58
2022/04/21 00:09:57;;;;;;;;;;;;;;;;;;5049696;28;19925;-59
2022/04/21 00:12:23;;;;;;;;;;;;;;;;;;5046228;28;19925;-58
2022/04/21 00:14:50;;;;;;;;;;;;;;;;;;5044767;28;19944;-58
2022/04/21 00:17:16;;;;;;;;;;;;;;;;;;5048706;28;19935;-59
2022/04/21 00:19:42;;;;;;;;;;;;;;;;;;5048871;28;19925;-58
2022/04/21 00:24:52;;;;;;;;;;;;;;;;;;5044255;28;20325;-58
2022/04/21 00:27:18;;;;;;;;;;;;;;;;;;5047014;28;19932;-58
2022/04/21 00:29:44;;;;;;;;;;;;;;;;;;5049688;28;19924;-59
2022/04/21 00:32:11;;;;;;;;;;;;;;;;;;5047993;28;19979;-58
2022/04/21 00:34:37;;;;;;;;;;;;;;;;;;5045159;28;19932;-58
2022/04/21 00:37:03;;;;;;;;;;;;;;;;;;5049749;28;20362;-60
2022/04/21 00:39:31;;;;;;;;;;;;;;;;;;5050615;28;19929;-60
2022/04/21 00:41:57;;;;;;;;;;;;;;;;;;5048528;28;19924;-58
2022/04/21 00:44:24;;;;;;;;;;;;;;;;;;5045736;28;20463;-59
2022/04/21 00:46:50;;;;;;;;;;;;;;;;;;5047854;28;20270;-57
2022/04/21 00:49:16;;;;;;;;;;;;;;;;;;5036270;28;19929;-58
2022/04/21 00:51:42;;;;;;;;;;;;;;;;;;5046930;28;19935;-60
2022/04/21 00:54:08;;;;;;;;;;;;;;;;;;5049339;28;20078;-59
2022/04/21 00:56:34;;;;;;;;;;;;;;;;;;5050313;28;19929;-60
2022/04/21 00:59:02;;;;;;;;;;;;;;;;;;5045121;28;19932;-60
2022/04/21 01:04:12;;;;;;;;;;;;;;;;;;5049499;28;19924;-60
2022/04/21 01:06:38;;;;;;;;;;;;;;;;;;5049643;28;19928;-60
2022/04/21 01:09:04;;;;;;;;;;;;;;;;;;5047361;28;20345;-61
2022/04/21 01:11:30;;;;;;;;;;;;;;;;;;5048979;28;19948;-59
2022/04/21 01:13:56;;;;;;;;;;;;;;;;;;5047357;28;20080;-60
2022/04/21 01:16:22;;;;;;;;;;;;;;;;;;5046676;28;19925;-60
2022/04/21 01:18:49;;;;;;;;;;;;;;;;;;5046107;28;19959;-62
2022/04/21 01:21:15;;;;;;;;;;;;;;;;;;5049038;28;19925;-67
2022/04/21 01:23:41;;;;;;;;;;;;;;;;;;5048858;28;19925;-66
2022/04/21 01:26:07;;;;;;;;;;;;;;;;;;5049048;28;19925;-61
2022/04/21 01:28:34;;;;;;;;;;;;;;;;;;5047825;28;19928;-63
2022/04/21 01:31:00;;;;;;;;;;;;;;;;;;5048469;28;19924;-60
2022/04/21 01:33:26;;;;;;;;;;;;;;;;;;5046810;28;19940;-60
2022/04/21 01:35:52;;;;;;;;;;;;;;;;;;5043400;28;19925;-59
2022/04/21 01:41:12;;;;;;;;;;;;;;;;;;5048711;28;19923;-60
2022/04/21 01:43:38;;;;;;;;;;;;;;;;;;5045457;28;19964;-61
2022/04/21 01:46:04;;;;;;;;;;;;;;;;;;5045915;28;19980;-61
2022/04/21 01:48:30;;;;;;;;;;;;;;;;;;5052388;28;19932;-62
2022/04/21 01:50:57;;;;;;;;;;;;;;;;;;5051740;28;19929;-62
2022/04/21 01:53:23;;;;;;;;;;;;;;;;;;5051383;28;19932;-61
2022/04/21 01:55:52;;;;;;;;;;;;;;;;;;5049055;28;19932;-62
2022/04/21 01:58:18;;;;;;;;;;;;;;;;;;5051522;28;20335;-61
2022/04/21 02:00:44;;;;;;;;;;;;;;;;;;5052687;28;20431;-61
2022/04/21 02:03:10;;;;;;;;;;;;;;;;;;5050798;28;19929;-61
2022/04/21 02:05:36;;;;;;;;;;;;;;;;;;5049824;28;19929;-62
2022/04/21 02:08:03;;;;;;;;;;;;;;;;;;5050928;28;19925;-61
2022/04/21 02:10:30;;;;;;;;;;;;;;;;;;5052227;28;19929;-62
2022/04/21 02:12:56;;;;;;;;;;;;;;;;;;5045843;28;20486;-61
2022/04/21 02:15:23;;;;;;;;;;;;;;;;;;5050290;28;20290;-61
2022/04/21 02:17:49;;;;;;;;;;;;;;;;;;5047878;28;20016;-62
2022/04/21 02:20:15;;;;;;;;;;;;;;;;;;5051748;28;19932;-62
2022/04/21 02:22:42;;;;;;;;;;;;;;;;;;5045542;28;19932;-62
2022/04/21 02:25:08;;;;;;;;;;;;;;;;;;5051666;28;20196;-61
2022/04/21 02:27:34;;;;;;;;;;;;;;;;;;5045279;28;20282;-61
2022/04/21 02:30:00;;;;;;;;;;;;;;;;;;5051103;28;20286;-60
2022/04/21 02:32:26;;;;;;;;;;;;;;;;;;5044195;28;19957;-60
2022/04/21 02:34:53;;;;;;;;;;;;;;;;;;5051110;28;20259;-62
2022/04/21 02:37:20;;;;;;;;;;;;;;;;;;5051324;28;19925;-61
2022/04/21 02:39:46;;;;;;;;;;;;;;;;;;5051655;28;19925;-62
2022/04/21 02:42:12;;;;;;;;;;;;;;;;;;5040139;28;19931;-61
2022/04/21 02:44:38;;;;;;;;;;;;;;;;;;5048613;28;19924;-63
2022/04/21 02:47:04;;;;;;;;;;;;;;;;;;5049658;28;19972;-60
2022/04/21 02:49:32;;;;;;;;;;;;;;;;;;5073198;22;19940;-63
2022/04/21 02:51:58;;;;;;;;;;;;;;;;;;5047068;28;19925;-62
2022/04/21 02:57:23;;;;;;;;;;;;;;;;;;5023887;28;19983;-62
2022/04/21 02:59:50;;;;;;;;;;;;;;;;;;5026912;28;19983;-61
2022/04/21 03:02:16;;;;;;;;;;;;;;;;;;5035461;28;20285;-61
2022/04/21 03:04:42;;;;;;;;;;;;;;;;;;5031392;28;20268;-61
2022/04/21 03:07:08;;;;;;;;;;;;;;;;;;5040969;28;19925;-61
2022/04/21 03:09:34;;;;;;;;;;;;;;;;;;5033946;28;19932;-61
2022/04/21 03:12:00;;;;;;;;;;;;;;;;;;5037013;28;19955;-62
2022/04/21 03:14:27;;;;;;;;;;;;;;;;;;5028955;28;19925;-62
2022/04/21 03:16:53;;;;;;;;;;;;;;;;;;5042882;28;19924;-61
2022/04/21 03:19:19;;;;;;;;;;;;;;;;;;5030761;28;20358;-62
2022/04/21 03:24:29;;;;;;;;;;;;;;;;;;5024990;28;19946;-62
2022/04/21 03:26:56;;;;;;;;;;;;;;;;;;5030008;28;19932;-62
2022/04/21 03:29:22;;;;;;;;;;;;;;;;;;5023634;28;19936;-62
2022/04/21 03:31:48;;;;;;;;;;;;;;;;;;5031241;28;19964;-62
2022/04/21 03:34:14;;;;;;;;;;;;;;;;;;5029133;28;19929;-62
2022/04/21 03:36:44;;;;;;;;;;;;;;;;;;5037082;28;19925;-62
2022/04/21 03:39:10;;;;;;;;;;;;;;;;;;5028010;28;20081;-62
2022/04/21 03:41:37;;;;;;;;;;;;;;;;;;5033177;28;19933;-62
2022/04/21 03:44:03;;;;;;;;;;;;;;;;;;5028238;28;19949;-62
2022/04/21 03:46:30;;;;;;;;;;;;;;;;;;5030441;28;19932;-63
2022/04/21 03:48:56;;;;;;;;;;;;;;;;;;5032813;28;20041;-64
2022/04/21 03:51:22;;;;;;;;;;;;;;;;;;5031962;28;19929;-61
2022/04/21 03:53:48;;;;;;;;;;;;;;;;;;5033175;28;19933;-59
2022/04/21 03:56:14;;;;;;;;;;;;;;;;;;5031870;28;19981;-59
2022/04/21 03:58:40;;;;;;;;;;;;;;;;;;5028021;28;19925;-59
2022/04/21 04:01:07;;;;;;;;;;;;;;;;;;5032952;28;19936;-60
2022/04/21 04:03:33;;;;;;;;;;;;;;;;;;5026262;28;20395;-60
2022/04/21 04:05:59;;;;;;;;;;;;;;;;;;5033217;28;20393;-60
2022/04/21 04:11:10;;;;;;;;;;;;;;;;;;5030859;28;20150;-59
2022/04/21 04:13:36;;;;;;;;;;;;;;;;;;5029064;28;20024;-60
2022/04/21 04:16:02;;;;;;;;;;;;;;;;;;5036039;28;19932;-63
2022/04/21 04:18:29;;;;;;;;;;;;;;;;;;5036886;28;19929;-63
2022/04/21 04:20:55;;;;;;;;;;;;;;;;;;5035405;28;19987;-61
2022/04/21 04:23:21;;;;;;;;;;;;;;;;;;5041322;28;19933;-62
2022/04/21 04:25:47;;;;;;;;;;;;;;;;;;5027588;28;20024;-60
2022/04/21 04:28:13;;;;;;;;;;;;;;;;;;5023265;28;20040;-61
2022/04/21 04:30:40;;;;;;;;;;;;;;;;;;5023509;28;19925;-61
2022/04/21 04:33:06;;;;;;;;;;;;;;;;;;5024184;28;19929;-61
2022/04/21 04:35:32;;;;;;;;;;;;;;;;;;5019600;28;19941;-61
2022/04/21 04:37:58;;;;;;;;;;;;;;;;;;5025112;28;20227;-61
2022/04/21 04:40:25;;;;;;;;;;;;;;;;;;5028747;28;19929;-61
2022/04/21 04:42:50;;;;;;;;;;;;;;;;;;5031198;28;20394;-60
2022/04/21 04:48:00;;;;;;;;;;;;;;;;;;5030636;28;19944;-61
2022/04/21 04:50:27;;;;;;;;;;;;;;;;;;5032729;28;19925;-61
2022/04/21 04:52:53;;;;;;;;;;;;;;;;;;5036441;28;19925;-61
2022/04/21 04:55:20;;;;;;;;;;;;;;;;;;5027879;28;19955;-61
2022/04/21 04:57:46;;;;;;;;;;;;;;;;;;5028923;28;19929;-61
2022/04/21 05:00:13;;;;;;;;;;;;;;;;;;5034866;28;20416;-61
2022/04/21 05:02:39;;;;;;;;;;;;;;;;;;5032874;28;19925;-61
2022/04/21 05:05:05;;;;;;;;;;;;;;;;;;5024509;28;19937;-67
2022/04/21 05:07:31;;;;;;;;;;;;;;;;;;5031864;28;19948;-67
2022/04/21 05:09:57;;;;;;;;;;;;;;;;;;5027513;28;20211;-67
2022/04/21 05:12:24;;;;;;;;;;;;;;;;;;5036735;28;19944;-67
2022/04/21 05:14:51;;;;;;;;;;;;;;;;;;5035208;28;19971;-67
2022/04/21 05:17:17;;;;;;;;;;;;;;;;;;5024439;28;20028;-67
2022/04/21 05:19:43;;;;;;;;;;;;;;;;;;4336712;28;10000840;-67
2022/04/21 05:22:11;;;;;;;;;;;;;;;;;;5032939;28;19954;-67
2022/04/21 05:24:37;;;;;;;;;;;;;;;;;;5032561;28;19943;-67
2022/04/21 05:27:04;;;;;;;;;;;;;;;;;;5029124;28;19936;-67
2022/04/21 05:32:13;;;;;;;;;;;;;;;;;;5030792;28;20474;-67
2022/04/21 05:34:40;;;;;;;;;;;;;;;;;;5027983;28;19929;-67
2022/04/21 05:37:06;;;;;;;;;;;;;;;;;;5027128;28;19969;-67
2022/04/21 05:39:33;;;;;;;;;;;;;;;;;;5026361;28;19939;-67
2022/04/21 05:41:59;;;;;;;;;;;;;;;;;;5035923;28;20003;-67
2022/04/21 05:44:25;;;;;;;;;;;;;;;;;;5038289;28;19928;-67
2022/04/21 05:46:51;;;;;;;;;;;;;;;;;;5034698;28;19936;-67
2022/04/21 05:49:17;;;;;;;;;;;;;;;;;;5034979;28;20149;-67
2022/04/21 05:51:44;;;;;;;;;;;;;;;;;;5031132;28;20160;-67
2022/04/21 05:54:10;;;;;;;;;;;;;;;;;;5025635;28;19933;-67
2022/04/21 05:56:36;;;;;;;;;;;;;;;;;;5031099;28;19933;-67
2022/04/21 05:59:03;;;;;;;;;;;;;;;;;;5029004;28;20041;-66
2022/04/21 06:01:30;;;;;;;;;;;;;;;;;;5035160;28;19935;-66
2022/04/21 06:03:56;;;;;;;;;;;;;;;;;;5037359;28;19925;-66
2022/04/21 06:06:22;;;;;;;;;;;;;;;;;;5035471;28;19924;-67
2022/04/21 06:08:48;;;;;;;;;;;;;;;;;;5035276;28;19924;-67
2022/04/21 06:11:14;;;;;;;;;;;;;;;;;;5034937;28;20039;-67
2022/04/21 06:13:41;;;;;;;;;;;;;;;;;;5025732;28;19929;-67
2022/04/21 06:16:07;;;;;;;;;;;;;;;;;;5025720;28;20386;-68
2022/04/21 06:18:34;;;;;;;;;;;;;;;;;;5013156;28;19936;-67
2022/04/21 06:21:00;;;;;;;;;;;;;;;;;;5020004;28;19930;-68
2022/04/21 06:23:26;;;;;;;;;;;;;;;;;;5024605;28;19928;-67
2022/04/21 06:25:58;;;;;;;;;;;;;;;;;;5029901;28;19932;-67
2022/04/21 06:28:24;;;;;;;;;;;;;;;;;;5034000;28;19940;-67
2022/04/21 06:30:50;;;;;;;;;;;;;;;;;;5028843;28;20011;-67
2022/04/21 06:33:16;;;;;;;;;;;;;;;;;;5038989;28;19970;-67
2022/04/21 06:35:44;;;;;;;;;;;;;;;;;;5033646;28;19929;-67
2022/04/21 06:38:10;;;;;;;;;;;;;;;;;;5019750;28;20393;-67
2022/04/21 06:40:36;;;;;;;;;;;;;;;;;;5037374;28;19951;-67
2022/04/21 06:48:01;;;;;;;;;;;;;;;;;;5029972;28;19929;-67
2022/04/21 06:48:33;;;;;;;;;;;;;;;;;;4685997;28;10001473;-67
2022/04/21 06:50:59;;;;;;;;;;;;;;;;;;5029227;28;19940;-67
2022/04/21 06:53:25;;;;;;;;;;;;;;;;;;5020711;28;20163;-67
2022/04/21 06:55:51;;;;;;;;;;;;;;;;;;5027455;28;19932;-68
2022/04/21 06:58:17;;;;;;;;;;;;;;;;;;5023621;28;19936;-67
2022/04/21 07:00:43;;;;;;;;;;;;;;;;;;5029276;28;19944;-68
2022/04/21 07:03:09;;;;;;;;;;;;;;;;;;5036020;28;19968;-67
2022/04/21 07:05:35;;;;;;;;;;;;;;;;;;5033085;28;19929;-67
2022/04/21 07:08:03;;;;;;;;;;;;;;;;;;5028941;28;19929;-67
2022/04/21 07:10:29;;;;;;;;;;;;;;;;;;5041089;28;20179;-66
2022/04/21 07:12:55;;;;;;;;;;;;;;;;;;5027909;28;20303;-68
2022/04/21 07:15:21;;;;;;;;;;;;;;;;;;5032055;28;20381;-67
2022/04/21 07:17:47;;;;;;;;;;;;;;;;;;5027153;28;19929;-68
2022/04/21 07:20:13;;;;;;;;;;;;;;;;;;5030091;28;20001;-67
2022/04/21 07:22:40;;;;;;;;;;;;;;;;;;5025982;28;19940;-66
2022/04/21 07:25:06;;;;;;;;;;;;;;;;;;5027040;28;19991;-67
2022/04/21 07:27:32;;;;;;;;;;;;;;;;;;5026587;28;19929;-67
2022/04/21 07:29:58;;;;;;;;;;;;;;;;;;5028547;28;20083;-66
2022/04/21 07:32:24;;;;;;;;;;;;;;;;;;5026694;28;19929;-67
2022/04/21 07:34:50;;;;;;;;;;;;;;;;;;5026170;28;19940;-66
2022/04/21 07:37:17;;;;;;;;;;;;;;;;;;5031352;28;19944;-66
2022/04/21 07:39:43;;;;;;;;;;;;;;;;;;5036102;28;19932;-65
2022/04/21 07:42:09;;;;;;;;;;;;;;;;;;5028704;28;20305;-66
2022/04/21 07:44:35;;;;;;;;;;;;;;;;;;5030850;28;19937;-66
2022/04/21 07:47:02;;;;;;;;;;;;;;;;;;5036836;28;19955;-67
2022/04/21 07:49:46;;;;;;;;;;;;;;;;;;5037036;28;19929;-67
2022/04/21 07:54:57;;;;;;;;;;;;;;;;;;5049064;28;19928;-65
2022/04/21 07:57:23;;;;;;;;;;;;;;;;;;5047223;28;19925;-66
2022/04/21 07:59:49;;;;;;;;;;;;;;;;;;5049074;28;19925;-66
2022/04/21 08:02:16;;;;;;;;;;;;;;;;;;5045096;28;19925;-65
2022/04/21 08:04:43;;;;;;;;;;;;;;;;;;5043779;28;20028;-66
2022/04/21 08:07:09;;;;;;;;;;;;;;;;;;5039133;28;20375;-65
2022/04/21 08:09:35;;;;;;;;;;;;;;;;;;5044913;28;19947;-66
2022/04/21 08:12:01;;;;;;;;;;;;;;;;;;5055842;28;19929;-66
2022/04/21 08:14:28;;;;;;;;;;;;;;;;;;5037120;28;20021;-65
2022/04/21 08:16:54;;;;;;;;;;;;;;;;;;5034795;28;19996;-66
2022/04/21 08:19:20;;;;;;;;;;;;;;;;;;5039354;28;19945;-66
2022/04/21 08:21:47;;;;;;;;;;;;;;;;;;5042262;28;19951;-66
2022/04/21 08:32:40;;;;;;;;;;;;;;;;;;5019555;28;19971;-67
2022/04/21 08:35:07;;;;;;;;;;;;;;;;;;5035356;28;19984;-67
2022/04/21 08:37:33;;;;;;;;;;;;;;;;;;5031810;28;19925;-66
2022/04/21 08:40:00;;;;;;;;;;;;;;;;;;5028939;28;20334;-66
2022/04/21 08:42:26;;;;;;;;;;;;;;;;;;5035192;28;19924;-66
2022/04/21 08:44:52;;;;;;;;;;;;;;;;;;5034369;28;19928;-65
2022/04/21 08:47:18;;;;;;;;;;;;;;;;;;5033783;28;19940;-66
2022/04/21 08:49:44;;;;;;;;;;;;;;;;;;5051061;22;20404;-70
2022/04/21 08:52:11;;;;;;;;;;;;;;;;;;5062987;28;19940;-71
2022/04/21 08:54:37;;;;;;;;;;;;;;;;;;5063456;28;20032;-70
2022/04/21 08:57:03;;;;;;;;;;;;;;;;;;5071862;28;19933;-70
2022/04/21 08:59:29;;;;;;;;;;;;;;;;;;5068400;28;20309;-71
2022/04/21 09:01:55;;;;;;;;;;;;;;;;;;5065867;28;19976;-71
2022/04/21 09:04:22;;;;;;;;;;;;;;;;;;5063908;28;19928;-72
2022/04/21 09:06:49;;;;;;;;;;;;;;;;;;5071387;28;19935;-70
2022/04/21 09:09:16;;;;;;;;;;;;;;;;;;5064523;28;19925;-70
2022/04/21 09:11:43;;;;;;;;;;;;;;;;;;5065583;28;19928;-70
2022/04/21 09:14:09;;;;;;;;;;;;;;;;;;5061800;28;19940;-70
2022/04/21 09:16:36;;;;;;;;;;;;;;;;;;5073953;28;19928;-71
2022/04/21 09:19:02;;;;;;;;;;;;;;;;;;5068097;28;19932;-71
2022/04/21 09:21:29;;;;;;;;;;;;;;;;;;5067837;28;20214;-70
2022/04/21 09:23:55;;;;;;;;;;;;;;;;;;5068529;28;19939;-71
2022/04/21 09:26:21;;;;;;;;;;;;;;;;;;5067201;28;20133;-71
2022/04/21 09:28:47;;;;;;;;;;;;;;;;;;5062542;28;20472;-71
2022/04/21 09:31:13;;;;;;;;;;;;;;;;;;5069230;28;19935;-71
2022/04/21 09:33:40;;;;;;;;;;;;;;;;;;5064501;28;19935;-70
2022/04/21 09:36:06;;;;;;;;;;;;;;;;;;5063245;28;19971;-71
2022/04/21 09:38:33;;;;;;;;;;;;;;;;;;5069713;28;19928;-71
2022/04/21 09:40:59;;;;;;;;;;;;;;;;;;5067584;28;19974;-70
2022/04/21 09:43:26;;;;;;;;;;;;;;;;;;5067920;28;19928;-72
2022/04/21 09:46:09;;;;;;;;;;;;;;;;;;5062460;28;19936;-71
2022/04/21 09:48:35;;;;;;;;;;;;;;;;;;5061872;28;20102;-71
2022/04/21 09:51:01;;;;;;;;;;;;;;;;;;5065833;28;20396;-72
2022/04/21 09:53:28;;;;;;;;;;;;;;;;;;5068325;28;20320;-71
2022/04/21 09:55:54;;;;;;;;;;;;;;;;;;5059585;28;19935;-71
2022/04/21 09:58:20;;;;;;;;;;;;;;;;;;5067095;28;19924;-71
2022/04/21 10:00:46;;;;;;;;;;;;;;;;;;5069109;28;19939;-71
2022/04/21 10:03:12;;;;;;;;;;;;;;;;;;5065449;28;19936;-71
2022/04/21 10:05:39;;;;;;;;;;;;;;;;;;5067759;28;19935;-71
2022/04/21 10:08:05;;;;;;;;;;;;;;;;;;5066048;28;19928;-71
2022/04/21 10:10:32;;;;;;;;;;;;;;;;;;5062739;28;19928;-71
2022/04/21 10:12:59;;;;;;;;;;;;;;;;;;5062486;28;20143;-71
2022/04/21 10:15:25;;;;;;;;;;;;;;;;;;5066796;28;19944;-71
2022/04/21 10:17:52;;;;;;;;;;;;;;;;;;5059758;28;19929;-71
2022/04/21 10:20:18;;;;;;;;;;;;;;;;;;5067594;28;19933;-71
2022/04/21 10:22:45;;;;;;;;;;;;;;;;;;5066467;28;20023;-71
2022/04/21 10:25:11;;;;;;;;;;;;;;;;;;5065232;28;19948;-71
2022/04/21 10:27:38;;;;;;;;;;;;;;;;;;5068839;28;19924;-71
2022/04/21 10:30:04;;;;;;;;;;;;;;;;;;5060527;28;20019;-71
2022/04/21 10:32:30;;;;;;;;;;;;;;;;;;5072788;28;19924;-71
2022/04/21 10:34:57;;;;;;;;;;;;;;;;;;5073292;28;19931;-71
2022/04/21 10:37:25;;;;;;;;;;;;;;;;;;5068353;28;20418;-71
2022/04/21 10:39:51;;;;;;;;;;;;;;;;;;5073752;28;20297;-72
2022/04/21 10:42:17;;;;;;;;;;;;;;;;;;5067932;28;19928;-72
2022/04/21 10:44:43;;;;;;;;;;;;;;;;;;5067332;28;19928;-72
2022/04/21 10:47:09;;;;;;;;;;;;;;;;;;5072820;28;19940;-71
2022/04/21 10:49:35;;;;;;;;;;;;;;;;;;5079194;28;19940;-71
2022/04/21 10:57:30;;;;;;;;;;;;;;;;;;5064569;28;20006;-72
2022/04/21 10:59:56;;;;;;;;;;;;;;;;;;5063376;28;19928;-70
2022/04/21 11:02:22;;;;;;;;;;;;;;;;;;5080100;28;19935;-70
2022/04/21 11:04:48;;;;;;;;;;;;;;;;;;5071481;28;19929;-70
2022/04/21 11:07:14;;;;;;;;;;;;;;;;;;5076397;28;19940;-71
2022/04/21 11:09:40;;;;;;;;;;;;;;;;;;5073167;28;20003;-71
2022/04/21 11:12:07;;;;;;;;;;;;;;;;;;5067556;28;20377;-71
2022/04/21 11:14:33;;;;;;;;;;;;;;;;;;5071495;28;20439;-70
2022/04/21 11:16:59;;;;;;;;;;;;;;;;;;5075516;28;19928;-72
2022/04/21 11:19:25;;;;;;;;;;;;;;;;;;5075162;28;19928;-72
2022/04/21 11:21:51;;;;;;;;;;;;;;;;;;5074430;28;20290;-71
2022/04/21 11:24:17;;;;;;;;;;;;;;;;;;5070215;28;19928;-70
2022/04/21 11:26:44;;;;;;;;;;;;;;;;;;5071393;28;19940;-71
2022/04/21 11:29:10;;;;;;;;;;;;;;;;;;5076968;28;19935;-71
2022/04/21 11:31:36;;;;;;;;;;;;;;;;;;5069728;28;20309;-70
2022/04/21 11:34:02;;;;;;;;;;;;;;;;;;5068525;28;19929;-71
2022/04/21 11:36:28;;;;;;;;;;;;;;;;;;5070844;28;20011;-72
2022/04/21 11:38:55;;;;;;;;;;;;;;;;;;5071377;28;20292;-71
2022/04/21 11:41:21;;;;;;;;;;;;;;;;;;5070021;28;19974;-72
2022/04/21 11:43:47;;;;;;;;;;;;;;;;;;5073319;28;19950;-71
2022/04/21 11:46:13;;;;;;;;;;;;;;;;;;5074139;28;20365;-71
2022/04/21 11:48:40;;;;;;;;;;;;;;;;;;5067541;28;20415;-71
2022/04/21 11:51:06;;;;;;;;;;;;;;;;;;5067305;28;19928;-71
2022/04/21 11:53:34;;;;;;;;;;;;;;;;;;5067160;28;19976;-71
2022/04/21 11:56:00;;;;;;;;;;;;;;;;;;5070962;28;19979;-71
2022/04/21 11:58:27;;;;;;;;;;;;;;;;;;5065768;28;19924;-72
2022/04/21 12:06:32;;;;;;;;;;;;;;;;;;5078259;28;20292;-70
2022/04/21 12:08:58;;;;;;;;;;;;;;;;;;5063539;28;19929;-71
2022/04/21 12:11:24;;;;;;;;;;;;;;;;;;5065403;28;19932;-70
2022/04/21 12:13:51;;;;;;;;;;;;;;;;;;5065432;28;19928;-70
2022/04/21 12:16:17;;;;;;;;;;;;;;;;;;5058817;28;19929;-70
2022/04/21 12:18:43;;;;;;;;;;;;;;;;;;5060787;28;20275;-69
2022/04/21 12:21:09;;;;;;;;;;;;;;;;;;5072018;28;20306;-70
2022/04/21 12:23:35;;;;;;;;;;;;;;;;;;5055802;28;19935;-71
2022/04/21 12:26:01;;;;;;;;;;;;;;;;;;5065957;28;19925;-69
2022/04/21 12:28:28;;;;;;;;;;;;;;;;;;5069728;28;20400;-70
2022/04/21 12:30:54;;;;;;;;;;;;;;;;;;5058476;28;19932;-70
2022/04/21 12:33:20;;;;;;;;;;;;;;;;;;5071399;28;20407;-70
2022/04/21 12:35:46;;;;;;;;;;;;;;;;;;5056413;28;19925;-70
2022/04/21 12:40:56;;;;;;;;;;;;;;;;;;5062872;28;20451;-70
2022/04/21 12:43:22;;;;;;;;;;;;;;;;;;5068261;28;19932;-70
2022/04/21 12:45:48;;;;;;;;;;;;;;;;;;5064518;28;19928;-70
2022/04/21 12:48:15;;;;;;;;;;;;;;;;;;5056262;28;19932;-71
2022/04/21 12:50:41;;;;;;;;;;;;;;;;;;5068151;28;19928;-71
2022/04/21 12:53:07;;;;;;;;;;;;;;;;;;5058310;28;19935;-70
2022/04/21 12:55:33;;;;;;;;;;;;;;;;;;5069816;28;19930;-70
2022/04/21 12:57:59;;;;;;;;;;;;;;;;;;5058363;28;19929;-70
2022/04/21 13:00:25;;;;;;;;;;;;;;;;;;5059247;28;19932;-70
2022/04/21 13:02:51;;;;;;;;;;;;;;;;;;5067507;28;19924;-70
2022/04/21 13:05:18;;;;;;;;;;;;;;;;;;5065488;28;19936;-70
2022/04/21 13:07:44;;;;;;;;;;;;;;;;;;5068344;28;20398;-71
2022/04/21 13:10:10;;;;;;;;;;;;;;;;;;5062898;28;19925;-70
2022/04/21 13:12:36;;;;;;;;;;;;;;;;;;5071474;28;19974;-72
2022/04/21 13:15:04;;;;;;;;;;;;;;;;;;5062928;28;19925;-70
2022/04/21 13:17:30;;;;;;;;;;;;;;;;;;5067703;28;20019;-70
2022/04/21 13:19:56;;;;;;;;;;;;;;;;;;5069473;28;20015;-71
2022/04/21 13:22:21;;;;;;;;;;;;;;;;;;5067765;28;19924;-71
2022/04/21 13:24:47;;;;;;;;;;;;;;;;;;5071978;28;19981;-70
2022/04/21 13:27:15;;;;;;;;;;;;;;;;;;5064787;28;19931;-71
2022/04/21 13:29:42;;;;;;;;;;;;;;;;;;5078746;28;20014;-71
2022/04/21 13:34:52;;;;;;;;;;;;;;;;;;5069572;28;19920;-70
2022/04/21 13:37:18;;;;;;;;;;;;;;;;;;5072287;28;20309;-71
2022/04/21 13:39:44;;;;;;;;;;;;;;;;;;5067043;28;19925;-70
2022/04/21 13:42:10;;;;;;;;;;;;;;;;;;5077282;28;20491;-70
2022/04/21 13:44:36;;;;;;;;;;;;;;;;;;4721329;28;9999967;-70
2022/04/21 13:47:03;;;;;;;;;;;;;;;;;;5070063;28;19998;-71
2022/04/21 13:49:30;;;;;;;;;;;;;;;;;;5074355;28;19936;-70
2022/04/21 13:51:56;;;;;;;;;;;;;;;;;;5066497;28;20612;-72
2022/04/21 13:54:22;;;;;;;;;;;;;;;;;;5073370;28;19927;-72
2022/04/21 13:56:48;;;;;;;;;;;;;;;;;;5075425;28;20019;-71
2022/04/21 13:59:15;;;;;;;;;;;;;;;;;;5060525;28;19924;-71
2022/04/21 14:01:44;;;;;;;;;;;;;;;;;;5065603;28;19930;-71
2022/04/21 14:04:11;;;;;;;;;;;;;;;;;;5070599;28;19928;-71
2022/04/21 14:06:37;;;;;;;;;;;;;;;;;;5070105;28;19956;-71
2022/04/21 14:09:03;;;;;;;;;;;;;;;;;;5057108;28;19929;-72
2022/04/21 14:11:29;;;;;;;;;;;;;;;;;;5071000;28;19936;-72
2022/04/21 14:13:55;;;;;;;;;;;;;;;;;;5065892;28;20608;-72
2022/04/21 14:16:22;;;;;;;;;;;;;;;;;;5062742;28;19974;-72
2022/04/21 14:18:48;;;;;;;;;;;;;;;;;;5069380;28;19931;-72
2022/04/21 14:21:14;;;;;;;;;;;;;;;;;;5070700;28;19924;-71
2022/04/21 14:23:41;;;;;;;;;;;;;;;;;;5065494;28;20015;-71
2022/04/21 14:26:08;;;;;;;;;;;;;;;;;;5064284;28;20328;-71
2022/04/21 14:28:34;;;;;;;;;;;;;;;;;;5073495;28;20034;-71
2022/04/21 14:31:00;;;;;;;;;;;;;;;;;;5057027;28;19928;-72
2022/04/21 14:33:26;;;;;;;;;;;;;;;;;;5060531;28;19933;-72
2022/04/21 14:35:52;;;;;;;;;;;;;;;;;;5066010;28;19928;-72
2022/04/21 14:46:30;;;;;;;;;;;;;;;;;;5067668;28;19927;-72
2022/04/21 14:48:56;;;;;;;;;;;;;;;;;;5067917;28;19932;-71
2022/04/21 14:51:22;;;;;;;;;;;;;;;;;;5097430;22;19950;-66
2022/04/21 14:53:48;;;;;;;;;;;;;;;;;;5105758;28;20351;-69
2022/04/21 14:56:15;;;;;;;;;;;;;;;;;;5101479;28;20295;-68
2022/04/21 14:58:41;;;;;;;;;;;;;;;;;;5102944;28;19928;-68
2022/04/21 15:01:07;;;;;;;;;;;;;;;;;;5106438;28;20002;-69
2022/04/21 15:03:36;;;;;;;;;;;;;;;;;;5105698;28;19927;-69
2022/04/21 15:06:02;;;;;;;;;;;;;;;;;;5105070;28;19936;-69
2022/04/21 15:08:29;;;;;;;;;;;;;;;;;;5105631;28;20384;-68
2022/04/21 15:10:55;;;;;;;;;;;;;;;;;;5098269;28;20361;-68
2022/04/21 15:13:21;;;;;;;;;;;;;;;;;;5105254;28;20315;-69
2022/04/21 15:15:47;;;;;;;;;;;;;;;;;;5101434;27;19935;-68
2022/04/21 15:18:13;;;;;;;;;;;;;;;;;;5114551;27;20330;-69
2022/04/21 15:20:39;;;;;;;;;;;;;;;;;;5100081;27;20280;-69
2022/04/21 15:23:07;;;;;;;;;;;;;;;;;;5101629;27;19943;-69
2022/04/21 15:25:33;;;;;;;;;;;;;;;;;;5104987;27;20316;-71
2022/04/21 15:28:00;;;;;;;;;;;;;;;;;;5103116;28;19962;-69
2022/04/21 15:30:26;;;;;;;;;;;;;;;;;;5107077;27;19928;-67
2022/04/21 15:32:52;;;;;;;;;;;;;;;;;;5110031;27;19950;-68
2022/04/21 15:35:18;;;;;;;;;;;;;;;;;;5104293;28;19936;-67
2022/04/21 15:37:45;;;;;;;;;;;;;;;;;;5101592;28;20419;-68
2022/04/21 15:40:12;;;;;;;;;;;;;;;;;;5104091;27;21170;-68
2022/04/21 15:42:39;;;;;;;;;;;;;;;;;;5104514;28;19927;-68
2022/04/21 15:45:05;;;;;;;;;;;;;;;;;;5105151;27;20322;-68
2022/04/21 15:47:32;;;;;;;;;;;;;;;;;;5098581;28;19924;-69
2022/04/21 15:49:58;;;;;;;;;;;;;;;;;;5104890;28;19923;-68
2022/04/21 15:52:24;;;;;;;;;;;;;;;;;;5102455;28;20431;-68
2022/04/21 16:00:18;;;;;;;;;;;;;;;;;;5098384;28;19923;-68
2022/04/21 16:02:46;;;;;;;;;;;;;;;;;;5105752;28;20008;-68
2022/04/21 16:05:12;;;;;;;;;;;;;;;;;;5105732;28;19985;-68
2022/04/21 16:07:39;;;;;;;;;;;;;;;;;;5097333;28;19928;-68
2022/04/21 16:10:05;;;;;;;;;;;;;;;;;;5097631;28;20315;-68
2022/04/21 16:12:31;;;;;;;;;;;;;;;;;;5095795;28;19938;-68
2022/04/21 16:14:57;;;;;;;;;;;;;;;;;;5095978;28;19927;-67
2022/04/21 16:17:23;;;;;;;;;;;;;;;;;;5098546;28;20001;-68
2022/04/21 16:19:49;;;;;;;;;;;;;;;;;;5102544;28;20023;-68
2022/04/21 16:22:18;;;;;;;;;;;;;;;;;;5099241;28;19940;-68
2022/04/21 16:24:44;;;;;;;;;;;;;;;;;;5101799;28;19928;-69
2022/04/21 16:27:11;;;;;;;;;;;;;;;;;;5102591;28;19924;-69
2022/04/21 16:29:37;;;;;;;;;;;;;;;;;;5095485;28;19934;-68
2022/04/21 16:32:05;;;;;;;;;;;;;;;;;;5099084;28;19936;-68
2022/04/21 16:34:31;;;;;;;;;;;;;;;;;;5098468;28;19924;-68
2022/04/21 16:36:57;;;;;;;;;;;;;;;;;;5102217;28;19935;-67
2022/04/21 16:39:23;;;;;;;;;;;;;;;;;;5094583;28;19954;-66
2022/04/21 16:41:49;;;;;;;;;;;;;;;;;;5096114;28;19940;-69
2022/04/21 16:44:16;;;;;;;;;;;;;;;;;;5096664;28;19931;-69
2022/04/21 16:46:42;;;;;;;;;;;;;;;;;;5099768;28;20030;-69
2022/04/21 16:49:08;;;;;;;;;;;;;;;;;;5099013;28;19923;-69
2022/04/21 16:51:34;;;;;;;;;;;;;;;;;;5098177;28;19930;-67
2022/04/21 16:54:00;;;;;;;;;;;;;;;;;;5100037;28;19928;-69
2022/04/21 16:56:27;;;;;;;;;;;;;;;;;;5099544;28;20003;-68
2022/04/21 16:58:53;;;;;;;;;;;;;;;;;;5101943;28;19989;-67
2022/04/21 17:04:06;;;;;;;;;;;;;;;;;;5099586;28;20272;-57
2022/04/21 17:06:33;;;;;;;;;;;;;;;;;;5103576;28;19928;-68
2022/04/21 17:08:59;;;;;;;;;;;;;;;;;;5102222;28;19923;-68
2022/04/21 17:11:25;;;;;;;;;;;;;;;;;;5102343;27;19943;-70
2022/04/21 17:13:51;;;;;;;;;;;;;;;;;;5105000;28;19927;-68
2022/04/21 17:16:17;;;;;;;;;;;;;;;;;;5108361;27;20177;-68
2022/04/21 17:18:43;;;;;;;;;;;;;;;;;;5103910;28;19924;-68
2022/04/21 17:21:09;;;;;;;;;;;;;;;;;;5106348;28;19924;-70
2022/04/21 17:23:35;;;;;;;;;;;;;;;;;;5106240;27;20380;-70
2022/04/21 17:26:02;;;;;;;;;;;;;;;;;;5111912;27;19930;-68
2022/04/21 17:28:28;;;;;;;;;;;;;;;;;;5106445;27;19927;-68
2022/04/21 17:30:54;;;;;;;;;;;;;;;;;;5116056;27;19931;-68
2022/04/21 17:33:20;;;;;;;;;;;;;;;;;;5107024;27;20441;-68
2022/04/21 17:35:46;;;;;;;;;;;;;;;;;;5117062;27;20249;-69
2022/04/21 17:38:12;;;;;;;;;;;;;;;;;;5107835;27;19938;-70
2022/04/21 17:40:38;;;;;;;;;;;;;;;;;;5111371;27;19935;-69
2022/04/21 17:43:05;;;;;;;;;;;;;;;;;;5106449;27;19939;-69
2022/04/21 17:45:31;;;;;;;;;;;;;;;;;;5106864;27;19935;-69
2022/04/21 17:48:00;;;;;;;;;;;;;;;;;;5102270;28;20031;-69